createdAt,value
2023-02-18T00:00:38.579Z,36.60
2023-02-18T00:04:41.413Z,39.90
2023-02-18T00:08:48.269Z,37.60
2023-02-18T00:12:51.119Z,35.20
2023-02-18T00:16:54.981Z,38.17
2023-02-18T00:20:57.852Z,41.50
2023-02-18T00:25:03.002Z,39.10
2023-02-18T00:29:05.835Z,37.93
2023-02-18T00:33:08.681Z,39.00
2023-02-18T00:37:11.500Z,38.00
2023-02-18T00:41:15.859Z,37.90
2023-02-18T00:45:18.703Z,37.53
2023-02-18T00:49:21.523Z,37.27
2023-02-18T00:53:24.693Z,37.67
2023-02-18T00:57:28.928Z,38.60
2023-02-18T01:01:32.568Z,35.60
2023-02-18T01:05:36.619Z,35.70
2023-02-18T01:09:42.417Z,37.13
2023-02-18T01:13:46.755Z,34.90
2023-02-18T01:17:49.626Z,31.93
2023-02-18T01:21:52.475Z,32.80
2023-02-18T01:25:58.037Z,30.60
2023-02-18T01:30:02.341Z,33.47
2023-02-18T01:34:05.333Z,31.27
2023-02-18T01:38:08.352Z,32.93
2023-02-18T01:42:19.879Z,32.23
2023-02-18T01:46:24.081Z,33.00
2023-02-18T01:50:28.032Z,32.43
2023-02-18T01:54:34.207Z,31.67
2023-02-18T01:58:37.604Z,35.10
2023-02-18T02:02:45.395Z,34.30
2023-02-18T02:06:49.635Z,32.70
2023-02-18T02:11:08.595Z,34.20
2023-02-18T02:15:24.997Z,31.27
2023-02-18T02:20:10.091Z,30.77
2023-02-18T02:24:41.469Z,32.10
2023-02-18T02:29:25.662Z,33.83
2023-02-18T02:34:02.246Z,30.40
2023-02-18T02:38:11.513Z,33.17
2023-02-18T02:42:21.345Z,30.77
2023-02-18T02:46:29.345Z,30.83
2023-02-18T02:50:38.451Z,30.27
2023-02-18T02:54:43.142Z,31.23
2023-02-18T02:58:52.279Z,31.30
2023-02-18T03:03:30.020Z,33.47
2023-02-18T03:07:56.269Z,30.77
2023-02-18T03:12:08.362Z,32.60
2023-02-18T03:16:19.138Z,32.50
2023-02-18T03:20:27.596Z,31.00
2023-02-18T03:24:36.169Z,31.07
2023-02-18T03:28:41.501Z,28.27
2023-02-18T03:32:48.905Z,28.37
2023-02-18T03:36:52.281Z,27.57
2023-02-18T03:40:55.173Z,27.87
2023-02-18T03:44:59.945Z,29.10
2023-02-18T03:49:03.006Z,28.70
2023-02-18T03:53:05.860Z,28.73
2023-02-18T03:57:08.774Z,29.23
2023-02-18T04:01:13.305Z,29.27
2023-02-18T04:05:16.592Z,28.23
2023-02-18T04:09:19.399Z,29.13
2023-02-18T04:13:22.250Z,25.80
2023-02-18T04:17:26.769Z,25.23
2023-02-18T04:21:29.586Z,25.90
2023-02-18T04:25:32.470Z,27.40
2023-02-18T04:29:35.528Z,25.43
2023-02-18T04:33:39.697Z,25.80
2023-02-18T04:37:42.951Z,21.10
2023-02-18T04:41:45.844Z,21.30
2023-02-18T04:45:48.716Z,17.87
2023-02-18T04:49:52.858Z,19.30
2023-02-18T04:53:55.673Z,17.80
2023-02-18T04:57:58.550Z,18.67
2023-02-18T05:02:02.115Z,15.83
2023-02-18T05:06:07.404Z,15.27
2023-02-18T05:10:12.043Z,14.53
2023-02-18T05:14:15.297Z,14.67
2023-02-18T05:18:18.150Z,12.63
2023-02-18T05:22:22.371Z,13.57
2023-02-18T05:26:25.239Z,12.33
2023-02-18T05:30:28.069Z,12.60
2023-02-18T05:34:30.895Z,10.70
2023-02-18T05:38:35.124Z,8.93
2023-02-18T05:42:37.886Z,9.30
2023-02-18T05:46:40.761Z,7.50
2023-02-18T05:50:43.690Z,7.83
2023-02-18T05:54:47.900Z,6.90
2023-02-18T05:58:50.866Z,6.53
2023-02-18T06:02:54.098Z,6.00
2023-02-18T06:06:57.166Z,6.77
2023-02-18T06:11:01.361Z,6.23
2023-02-18T06:15:04.698Z,4.70
2023-02-18T06:19:07.604Z,5.10
2023-02-18T06:23:11.741Z,5.20
2023-02-18T06:27:15.944Z,3.70
2023-02-18T06:31:18.994Z,4.73
2023-02-18T06:35:21.868Z,4.17
2023-02-18T06:39:24.758Z,4.20
2023-02-18T06:43:29.127Z,4.73
2023-02-18T06:47:31.906Z,5.53
2023-02-18T06:51:34.665Z,6.70
2023-02-18T06:55:37.700Z,8.03
2023-02-18T06:59:41.877Z,6.60
2023-02-18T07:03:44.777Z,4.20
2023-02-18T07:07:47.769Z,3.87
2023-02-18T07:11:50.588Z,3.27
2023-02-18T07:15:54.728Z,3.57
2023-02-18T07:19:57.597Z,4.70
2023-02-18T07:24:00.401Z,5.10
2023-02-18T07:28:03.256Z,7.07
2023-02-18T07:32:07.698Z,6.17
2023-02-18T07:36:11.194Z,5.67
2023-02-18T07:40:17.684Z,6.27
2023-02-18T07:44:20.520Z,7.53
2023-02-18T07:48:24.753Z,6.20
2023-02-18T07:52:27.533Z,7.03
2023-02-18T07:56:30.343Z,6.17
2023-02-18T08:00:33.190Z,7.23
2023-02-18T08:04:37.493Z,5.57
2023-02-18T08:08:40.316Z,6.13
2023-02-18T08:12:43.218Z,5.00
2023-02-18T08:16:46.099Z,4.60
2023-02-18T08:20:51.715Z,5.87
2023-02-18T08:24:56.321Z,4.37
2023-02-18T08:28:59.432Z,3.60
2023-02-18T08:33:02.220Z,4.10
2023-02-18T08:37:06.722Z,5.10
2023-02-18T08:41:10.324Z,4.70
2023-02-18T08:45:13.326Z,5.37
2023-02-18T08:49:16.106Z,5.80
2023-02-18T08:53:20.359Z,6.43
2023-02-18T08:57:23.266Z,7.27
2023-02-18T09:01:26.218Z,7.60
2023-02-18T09:05:29.540Z,6.67
2023-02-18T09:09:33.955Z,7.90
2023-02-18T09:13:36.730Z,7.37
2023-02-18T09:17:39.581Z,9.00
2023-02-18T09:21:42.380Z,8.97
2023-02-18T09:25:46.587Z,8.67
2023-02-18T09:29:51.495Z,9.10
2023-02-18T09:33:56.360Z,10.30
2023-02-18T09:37:59.184Z,9.60
2023-02-18T09:42:05.987Z,8.43
2023-02-18T09:46:18.280Z,8.47
2023-02-18T09:50:23.730Z,7.53
2023-02-18T09:54:28.507Z,6.20
2023-02-18T09:58:35.399Z,6.17
2023-02-18T10:02:40.746Z,5.77
2023-02-18T10:06:45.850Z,5.93
2023-02-18T10:10:49.068Z,6.10
2023-02-18T10:14:55.661Z,6.20
2023-02-18T10:19:00.909Z,5.63
2023-02-18T10:23:06.305Z,4.90
2023-02-18T10:27:10.664Z,5.13
2023-02-18T10:31:19.932Z,5.53
2023-02-18T10:35:26.402Z,5.30
2023-02-18T10:39:46.251Z,5.33
2023-02-18T10:43:57.747Z,5.27
2023-02-18T10:48:21.409Z,4.70
2023-02-18T10:52:26.175Z,5.83
2023-02-18T10:56:39.344Z,4.33
2023-02-18T11:00:42.135Z,3.70
2023-02-18T11:04:47.260Z,5.20
2023-02-18T11:08:51.280Z,5.33
2023-02-18T11:12:59.019Z,6.43
2023-02-18T11:17:11.407Z,6.27
2023-02-18T11:21:29.947Z,6.57
2023-02-18T11:25:35.246Z,6.20
2023-02-18T11:29:38.720Z,5.67
2023-02-18T11:33:45.909Z,6.20
2023-02-18T11:37:50.613Z,6.80
2023-02-18T11:41:57.365Z,6.40
2023-02-18T11:46:10.938Z,7.13
2023-02-18T11:50:23.000Z,7.27
2023-02-18T11:54:31.255Z,7.03
2023-02-18T11:58:40.164Z,7.40
2023-02-18T12:02:43.172Z,8.53
2023-02-18T12:06:53.479Z,7.47
2023-02-18T12:11:04.901Z,7.43
2023-02-18T12:15:14.868Z,7.67
2023-02-18T12:19:48.343Z,7.73
2023-02-18T12:24:00.505Z,7.10
2023-02-18T12:28:20.115Z,8.03
2023-02-18T12:32:36.348Z,8.37
2023-02-18T12:36:57.286Z,7.70
2023-02-18T12:41:18.325Z,8.20
2023-02-18T12:45:42.997Z,8.13
2023-02-18T12:50:26.216Z,9.17
2023-02-18T12:54:43.642Z,8.80
2023-02-18T12:58:57.171Z,8.43
2023-02-18T13:03:32.558Z,9.00
2023-02-18T13:07:56.398Z,8.93
2023-02-18T13:12:08.602Z,8.70
2023-02-18T13:16:14.186Z,10.03
2023-02-18T13:20:22.965Z,8.60
2023-02-18T13:24:34.144Z,9.20
2023-02-18T13:28:45.081Z,9.17
2023-02-18T13:32:58.866Z,7.80
2023-02-18T13:37:09.618Z,8.77
2023-02-18T13:41:14.788Z,7.33
2023-02-18T13:45:30.346Z,7.40
2023-02-18T13:49:35.307Z,7.40
2023-02-18T13:53:39.719Z,6.37
2023-02-18T13:57:48.817Z,7.87
2023-02-18T14:01:53.854Z,6.73
2023-02-18T14:05:57.960Z,7.70
2023-02-18T14:10:03.146Z,7.20
2023-02-18T14:14:40.600Z,7.13
2023-02-18T14:19:01.778Z,7.03
2023-02-18T14:23:51.437Z,7.90
2023-02-18T14:27:55.680Z,7.13
2023-02-18T14:32:04.920Z,7.03
2023-02-18T14:36:31.548Z,8.23
2023-02-18T14:41:15.658Z,7.97
2023-02-18T14:46:02.702Z,8.23
2023-02-18T14:50:33.336Z,7.20
2023-02-18T14:54:47.843Z,6.57
2023-02-18T14:58:54.922Z,6.67
2023-02-18T15:02:58.078Z,6.80
2023-02-18T15:07:04.624Z,6.23
2023-02-18T15:11:09.382Z,6.60
2023-02-18T15:15:16.839Z,6.10
2023-02-18T15:19:23.783Z,7.20
2023-02-18T15:23:28.499Z,6.27
2023-02-18T15:27:33.361Z,6.37
2023-02-18T15:31:39.640Z,7.13
2023-02-18T15:35:43.370Z,6.50
2023-02-18T15:39:48.272Z,6.33
2023-02-18T15:44:08.264Z,5.87
2023-02-18T15:48:24.291Z,6.03
2023-02-18T15:52:31.891Z,7.57
2023-02-18T15:56:40.838Z,5.97
2023-02-18T16:00:50.816Z,5.97
2023-02-18T16:04:57.035Z,5.87
2023-02-18T16:09:03.108Z,5.87
2023-02-18T16:13:07.634Z,6.13
2023-02-18T16:17:16.314Z,6.93
2023-02-18T16:21:32.793Z,6.00
2023-02-18T16:25:43.105Z,4.93
2023-02-18T16:29:52.042Z,4.50
2023-02-18T16:33:55.116Z,4.73
2023-02-18T16:37:58.608Z,4.63
2023-02-18T16:42:01.971Z,4.50
2023-02-18T16:46:11.017Z,4.40
2023-02-18T16:50:19.323Z,5.00
2023-02-18T16:54:22.479Z,5.20
2023-02-18T16:58:25.455Z,4.50
2023-02-18T17:02:32.232Z,4.43
2023-02-18T17:06:48.464Z,5.17
2023-02-18T17:10:54.001Z,4.77
2023-02-18T17:14:57.278Z,5.00
2023-02-18T17:19:01.729Z,4.60
2023-02-18T17:23:04.980Z,5.70
2023-02-18T17:27:08.796Z,5.33
2023-02-18T17:31:16.755Z,6.40
2023-02-18T17:35:24.545Z,5.80
2023-02-18T17:39:29.847Z,6.40
2023-02-18T17:43:34.196Z,6.43
2023-02-18T17:47:37.335Z,5.70
2023-02-18T17:51:41.722Z,5.97
2023-02-18T17:55:46.405Z,6.13
2023-02-18T17:59:49.343Z,5.47
2023-02-18T18:03:52.401Z,5.23
2023-02-18T18:07:56.849Z,6.17
2023-02-18T18:12:00.003Z,7.97
2023-02-18T18:16:02.852Z,7.33
2023-02-18T18:20:07.848Z,8.77
2023-02-18T18:24:13.039Z,8.80
2023-02-18T18:28:17.494Z,9.60
2023-02-18T18:32:22.844Z,11.13
2023-02-18T18:36:26.186Z,13.40
2023-02-18T18:40:32.681Z,16.37
2023-02-18T18:44:35.888Z,16.57
2023-02-18T18:48:39.372Z,16.80
2023-02-18T18:52:43.584Z,19.37
2023-02-18T18:56:50.121Z,18.43
2023-02-18T19:00:55.320Z,18.67
2023-02-18T19:04:58.185Z,20.63
2023-02-18T19:09:01.183Z,20.97
2023-02-18T19:13:08.951Z,18.83
2023-02-18T19:17:13.102Z,19.03
2023-02-18T19:21:17.285Z,20.20
2023-02-18T19:25:26.597Z,19.27
2023-02-18T19:29:36.214Z,20.77
2023-02-18T19:33:51.431Z,23.43
2023-02-18T19:38:16.934Z,25.03
2023-02-18T19:42:20.633Z,22.27
2023-02-18T19:46:24.914Z,23.50
2023-02-18T19:50:31.064Z,22.63
2023-02-18T19:54:34.232Z,22.47
2023-02-18T19:58:40.012Z,22.40
2023-02-18T20:02:44.845Z,23.00
2023-02-18T20:06:48.008Z,23.57
2023-02-18T20:11:00.088Z,23.67
2023-02-18T20:15:09.507Z,22.57
2023-02-18T20:19:14.594Z,24.20
2023-02-18T20:23:23.177Z,21.53
2023-02-18T20:27:33.294Z,110.03
2023-02-18T20:31:37.432Z,20.17
2023-02-18T20:35:43.487Z,17.73
2023-02-18T20:39:57.403Z,17.53
2023-02-18T20:44:02.186Z,16.00
2023-02-18T20:48:06.069Z,15.90
2023-02-18T20:52:11.359Z,15.47
2023-02-18T20:56:15.705Z,16.17
2023-02-18T21:00:20.447Z,17.27
2023-02-18T21:04:23.947Z,18.73
2023-02-18T21:08:29.690Z,16.23
2023-02-18T21:12:32.765Z,17.90
2023-02-18T21:16:41.923Z,18.60
2023-02-18T21:20:59.607Z,20.90
2023-02-18T21:25:17.908Z,20.13
2023-02-18T21:29:21.004Z,19.90
2023-02-18T21:33:23.996Z,21.37
2023-02-18T21:37:56.045Z,25.07
2023-02-18T21:42:10.642Z,26.40
2023-02-18T21:46:31.298Z,24.77
2023-02-18T21:50:36.812Z,22.17
2023-02-18T21:54:41.331Z,22.53
2023-02-18T21:58:46.941Z,21.97
2023-02-18T22:02:59.506Z,25.43
2023-02-18T22:07:18.034Z,22.13
2023-02-18T22:11:36.661Z,22.50
2023-02-18T22:16:01.691Z,20.20
2023-02-18T22:20:19.534Z,20.23
2023-02-18T22:24:35.943Z,21.37
2023-02-18T22:28:54.810Z,20.63
2023-02-18T22:33:10.401Z,18.77
2023-02-18T22:37:24.636Z,19.40
2023-02-18T22:41:29.260Z,17.33
2023-02-18T22:45:33.134Z,19.50
2023-02-18T22:49:37.464Z,18.17
2023-02-18T22:53:41.401Z,16.23
2023-02-18T22:57:45.142Z,14.90
2023-02-18T23:01:58.232Z,21.27
2023-02-18T23:06:20.423Z,21.57
2023-02-18T23:10:39.619Z,16.60
2023-02-18T23:14:56.116Z,15.80
2023-02-18T23:19:00.248Z,15.43
2023-02-18T23:23:06.223Z,14.60
2023-02-18T23:27:10.269Z,14.90
2023-02-18T23:31:16.576Z,11.83
2023-02-18T23:35:34.303Z,12.50
2023-02-18T23:39:53.501Z,13.40
2023-02-18T23:44:05.390Z,14.70
2023-02-18T23:48:12.276Z,15.57
2023-02-18T23:52:15.588Z,16.50
2023-02-18T23:56:23.546Z,18.37
